Terminal Aerodrome Forecast
Issued by NWS

Home | Current Version | Previous Version | Text Only | Print | Product List | Glossary On
Versions: 1 2 3 4 5 6 7 8 9 10 11 12 13 14 15 16 17 18 19 20 21 22 23 24
000
FTUS45 KREV 172320
TAFRNO
TAF
KRNO 172320Z 1800/1824 17006KT P6SM SCT120 BKN180
     FM181700 21014G30KT P6SM BKN050
     FM182100 21025G48KT P6SM BKN040 WS020/25040KT=

USA.gov is the U.S. government's official web portal to all federal, state and local government web resources and services.